Sao Miguel do Araguaia, Brazil
Current Conditions -  °F | °C
As of 4:00 AM on Wednesday 22 Oct 2014 (Local Time) from SBAN Reporting Station
Clear Clear  
Wind Chill: 64°   Ceiling: Unl
Heat Index: 64°   Visibility: 6mi
Dew Point: 59°   Wind: 9mph
Humidity: 83%   Direction: 80°E
Pressure: 30.03"   Gusts: NA
Location:  13.28°S, 50.16°W
Report Text: SBAN 220600Z 08008KT CAVOK 18/15 Q1017
Loading
Personal Weather Stations






























Interactive Weather Map
Tropical Storm Tracking
New forecast layout! Learn more

10-Day Weather Forecast

Advertisements
Track Severe Weather on mobile